Time;durP1;ratioP1;P1;durP2;ratioP2;P2;SDS_P1;SDS_P2;PMS_P1;PMS_P2;Temp;Humidity;BMP_temperature;BMP_pressure;BME280_temperature;BME280_humidity;BME280_pressure;Samples;Min_cycle;Max_cycle;Signal;HPM_P1;HPM_P2
2022/02/04 00:01:16;;;;;;;0.60;0.50;;;4.10;99.90;;;;;;4993612;28;20416;-79
2022/02/04 00:06:48;;;;;;;0.73;0.73;;;3.90;99.90;;;;;;4996815;28;20448;-79
2022/02/04 00:09:34;;;;;;;0.30;0.30;;;3.90;99.90;;;;;;4996833;28;20466;-79
2022/02/04 00:20:28;;;;;;;0.40;0.40;;;4.00;99.90;;;;;;4996564;28;20933;-79
2022/02/04 00:23:04;;;;;;;0.30;0.30;;;4.00;99.90;;;;;;4996602;28;20443;-80
2022/02/04 00:25:42;;;;;;;0.30;0.30;;;4.00;99.90;;;;;;4996488;28;20472;-79
2022/02/04 00:28:13;;;;;;;0.30;0.30;;;4.10;99.90;;;;;;4996511;28;20437;-79
2022/02/04 00:30:46;;;;;;;0.50;0.50;;;4.10;99.90;;;;;;4996501;28;20433;-79
2022/02/04 00:33:14;;;;;;;0.30;0.20;;;4.20;99.90;;;;;;4996440;28;20424;-79
2022/02/04 00:35:53;;;;;;;0.40;0.40;;;4.20;99.90;;;;;;4996250;28;20477;-79
2022/02/04 00:38:27;;;;;;;0.40;0.40;;;4.20;99.90;;;;;;4996267;28;20523;-79
2022/02/04 00:41:00;;;;;;;0.37;0.37;;;4.20;99.90;;;;;;4996286;28;20436;-79
2022/02/04 00:43:29;;;;;;;0.47;0.47;;;4.20;99.90;;;;;;4996224;28;20437;-79
2022/02/04 00:46:05;;;;;;;0.83;0.83;;;4.10;99.90;;;;;;4995751;28;20980;-79
2022/02/04 00:48:39;;;;;;;0.40;0.40;;;4.00;99.90;;;;;;4996166;28;20436;-79
2022/02/04 00:51:13;;;;;;;0.30;0.30;;;4.00;99.90;;;;;;4996152;28;20433;-79
2022/02/04 00:53:49;;;;;;;0.30;0.30;;;4.00;99.90;;;;;;4996081;28;20441;-79
2022/02/04 00:56:22;;;;;;;0.30;0.30;;;4.00;99.90;;;;;;4995637;28;20827;-79
2022/02/04 01:26:25;;;;;;;0.40;0.40;;;4.50;99.90;;;;;;4957998;28;20494;-79
2022/02/04 01:28:53;;;;;;;0.30;0.30;;;4.50;99.90;;;;;;4996205;28;20789;-79
2022/02/04 01:31:22;;;;;;;1.30;1.30;;;4.60;99.90;;;;;;4995307;28;20509;-79
2022/02/04 01:33:51;;;;;;;0.40;0.40;;;4.50;99.90;;;;;;4995260;28;20531;-79
2022/02/04 01:36:19;;;;;;;0.30;0.30;;;4.60;99.90;;;;;;4995141;28;20473;-79
2022/02/04 01:38:46;;;;;;;0.30;0.20;;;4.60;99.90;;;;;;4995048;28;20506;-79
2022/02/04 01:41:13;;;;;;;0.30;0.20;;;4.70;99.90;;;;;;4994809;28;20455;-79
2022/02/04 01:43:41;;;;;;;0.30;0.30;;;4.60;99.90;;;;;;4995040;28;20460;-79
2022/02/04 01:46:10;;;;;;;0.70;0.50;;;4.70;99.90;;;;;;4994937;28;20472;-79
2022/02/04 01:48:38;;;;;;;0.80;0.80;;;4.70;99.90;;;;;;4994932;28;20455;-79
2022/02/04 01:51:07;;;;;;;0.30;0.30;;;4.70;99.90;;;;;;4994890;28;20460;-79
2022/02/04 01:53:35;;;;;;;0.30;0.30;;;4.70;99.90;;;;;;4994884;28;20448;-79
2022/02/04 01:56:04;;;;;;;0.30;0.30;;;4.70;99.90;;;;;;4994448;28;20468;-79
2022/02/04 01:58:31;;;;;;;0.87;0.77;;;4.80;99.90;;;;;;4994727;28;20486;-79
2022/02/04 02:00:58;;;;;;;0.30;0.30;;;4.80;99.90;;;;;;4994456;28;20457;-79
2022/02/04 02:03:26;;;;;;;2.10;0.40;;;4.90;99.90;;;;;;4994370;28;20847;-79
2022/02/04 02:05:56;;;;;;;0.50;0.50;;;4.90;99.90;;;;;;4994319;28;20465;-79
2022/02/04 02:08:24;;;;;;;0.30;0.30;;;4.90;99.90;;;;;;4994634;28;20470;-79
2022/02/04 02:10:51;;;;;;;0.30;0.30;;;4.90;99.90;;;;;;4994611;28;20440;-79
2022/02/04 02:13:27;;;;;;;0.30;0.30;;;4.90;99.90;;;;;;4994528;28;20460;-79
2022/02/04 02:16:05;;;;;;;0.30;0.30;;;4.90;99.90;;;;;;4994840;28;20499;-79
2022/02/04 02:44:06;;;;;;;0.30;0.30;;;5.00;99.90;;;;;;4994149;28;20428;-79
2022/02/04 02:47:04;;;;;;;0.30;0.20;;;5.10;99.90;;;;;;4993743;28;20464;-79
2022/02/04 02:49:52;;;;;;;0.30;0.30;;;5.10;99.90;;;;;;4993797;28;20982;-79
2022/02/04 02:52:26;;;;;;;0.33;0.33;;;5.10;99.90;;;;;;4994101;28;20432;-79
2022/02/04 02:55:15;;;;;;;0.30;0.20;;;5.20;99.90;;;;;;4994032;28;20444;-79
2022/02/04 02:58:02;;;;;;;0.40;0.40;;;5.10;99.90;;;;;;4993931;28;20475;-79
2022/02/04 03:00:34;;;;;;;0.30;0.30;;;5.20;99.90;;;;;;4994005;28;20437;-79
2022/02/04 03:03:06;;;;;;;0.30;0.30;;;5.10;99.90;;;;;;4993993;28;20447;-79
2022/02/04 03:05:32;;;;;;;0.30;0.30;;;5.20;99.90;;;;;;4993876;28;20472;-79
2022/02/04 03:07:59;;;;;;;0.47;0.47;;;5.20;99.90;;;;;;4993826;28;20452;-79
2022/02/04 03:10:27;;;;;;;0.30;0.30;;;5.20;99.90;;;;;;4993670;28;20456;-79
2022/02/04 03:12:54;;;;;;;1.10;1.00;;;5.10;99.90;;;;;;4993780;28;20452;-79
2022/02/04 03:15:21;;;;;;;1.00;0.97;;;5.20;99.90;;;;;;4993408;28;20515;-79
2022/02/04 03:17:57;;;;;;;0.50;0.50;;;5.10;99.90;;;;;;4993397;28;21033;-79
2022/02/04 03:20:24;;;;;;;0.30;0.20;;;5.00;99.90;;;;;;4993853;28;20495;-79
2022/02/04 03:22:52;;;;;;;0.30;0.30;;;5.00;99.90;;;;;;4993429;28;20456;-79
2022/02/04 03:25:21;;;;;;;0.30;0.30;;;5.00;99.90;;;;;;4993276;28;20570;-79
2022/02/04 03:27:53;;;;;;;2.73;0.60;;;4.90;99.90;;;;;;4993349;28;20507;-79
2022/02/04 03:30:25;;;;;;;0.30;0.30;;;5.00;99.90;;;;;;4993768;28;20437;-79
2022/02/04 03:32:55;;;;;;;0.30;0.30;;;5.00;99.90;;;;;;4996990;28;20444;-79
2022/02/04 03:35:24;;;;;;;0.30;0.30;;;4.90;99.90;;;;;;4997471;28;20539;-79
2022/02/04 03:37:53;;;;;;;0.30;0.20;;;4.90;99.90;;;;;;4997037;28;20996;-79
2022/02/04 03:40:20;;;;;;;0.30;0.30;;;5.00;99.90;;;;;;4998025;28;20851;-79
2022/02/04 03:42:48;;;;;;;0.30;0.30;;;4.90;99.90;;;;;;4997067;28;20433;-79
2022/02/04 03:45:17;;;;;;;0.30;0.30;;;4.90;99.90;;;;;;4997191;28;20459;-79
2022/02/04 03:47:44;;;;;;;0.30;0.20;;;4.90;99.90;;;;;;4997276;28;20481;-79
2022/02/04 03:50:11;;;;;;;0.30;0.20;;;4.90;99.90;;;;;;4997244;28;20463;-79
2022/02/04 03:52:39;;;;;;;0.40;0.30;;;4.90;99.90;;;;;;4997149;28;20455;-79
2022/02/04 03:55:07;;;;;;;0.30;0.30;;;4.80;99.90;;;;;;4996828;28;20460;-79
2022/02/04 03:57:34;;;;;;;0.60;0.50;;;4.80;99.90;;;;;;4996860;28;20499;-79
2022/02/04 04:00:00;;;;;;;0.40;0.40;;;4.90;99.90;;;;;;4996697;28;20452;-79
2022/02/04 04:02:28;;;;;;;0.40;0.30;;;4.90;99.90;;;;;;4996950;28;20456;-79
2022/02/04 04:04:55;;;;;;;0.30;0.30;;;4.90;99.90;;;;;;4996942;28;20456;-79
2022/02/04 04:07:22;;;;;;;0.67;0.37;;;4.90;99.90;;;;;;4996834;28;20475;-80
2022/02/04 04:09:53;;;;;;;0.30;0.20;;;5.00;99.90;;;;;;4996558;28;20447;-79
2022/02/04 04:12:20;;;;;;;0.33;0.33;;;5.00;99.90;;;;;;4996876;28;20858;-79
2022/02/04 04:14:51;;;;;;;0.40;0.33;;;5.00;99.90;;;;;;4996748;28;20460;-79
2022/02/04 04:17:18;;;;;;;0.50;0.50;;;5.00;99.90;;;;;;4996296;28;20516;-79
2022/02/04 04:19:46;;;;;;;0.70;0.37;;;5.10;99.90;;;;;;4996661;28;20457;-79
2022/02/04 04:22:13;;;;;;;0.30;0.20;;;5.10;99.90;;;;;;4996633;28;20448;-79
2022/02/04 04:24:40;;;;;;;0.30;0.30;;;5.10;99.90;;;;;;4996076;28;20488;-79
2022/02/04 04:27:07;;;;;;;1.13;0.87;;;5.10;99.90;;;;;;4996242;28;20544;-79
2022/02/04 04:29:33;;;;;;;0.30;0.30;;;5.10;99.90;;;;;;4996209;28;20941;-79
2022/02/04 04:32:00;;;;;;;0.30;0.20;;;5.10;99.90;;;;;;4996462;28;20456;-79
2022/02/04 04:34:27;;;;;;;0.50;0.40;;;5.10;99.90;;;;;;4996365;28;20444;-79
2022/02/04 04:36:55;;;;;;;0.30;0.30;;;5.00;99.90;;;;;;4996569;28;20468;-79
2022/02/04 04:39:26;;;;;;;0.30;0.30;;;5.00;99.90;;;;;;4995919;28;20878;-79
2022/02/04 04:42:08;;;;;;;0.30;0.30;;;5.00;99.90;;;;;;4996305;28;20863;-79
2022/02/04 05:26:22;;;;;;;0.40;0.40;;;5.10;99.90;;;;;;4995559;28;20483;-79
2022/02/04 05:28:59;;;;;;;0.30;0.27;;;5.00;99.90;;;;;;4995334;28;20441;-79
2022/02/04 05:31:25;;;;;;;0.30;0.30;;;5.00;99.90;;;;;;4995352;28;20436;-79
2022/02/04 05:33:52;;;;;;;0.30;0.30;;;5.00;99.90;;;;;;4995530;28;20452;-79
2022/02/04 05:36:19;;;;;;;0.30;0.20;;;5.00;99.90;;;;;;4994858;28;20975;-79
2022/02/04 05:38:46;;;;;;;0.30;0.30;;;5.00;99.90;;;;;;4995645;28;20484;-79
2022/02/04 05:41:20;;;;;;;0.37;0.33;;;5.00;99.90;;;;;;4995210;28;20484;-78
2022/02/04 05:43:48;;;;;;;0.30;0.30;;;5.00;99.90;;;;;;4995131;28;20437;-78
2022/02/04 05:46:18;;;;;;;0.30;0.30;;;5.10;99.90;;;;;;4995019;28;20540;-78
2022/02/04 05:48:49;;;;;;;0.30;0.30;;;5.10;99.90;;;;;;4995561;28;20943;-78
2022/02/04 05:51:37;;;;;;;0.60;0.47;;;5.00;99.90;;;;;;4994990;28;20539;-78
2022/02/04 05:54:07;;;;;;;0.30;0.30;;;5.00;99.90;;;;;;4994618;28;20441;-77
2022/02/04 05:56:42;;;;;;;0.50;0.40;;;5.00;99.90;;;;;;4994322;28;20472;-77
2022/02/04 05:59:17;;;;;;;0.30;0.20;;;5.00;99.90;;;;;;4994797;28;20472;-77
2022/02/04 06:01:53;;;;;;;0.30;0.30;;;5.00;99.90;;;;;;4994816;28;20539;-77
2022/02/04 06:04:39;;;;;;;0.30;0.30;;;5.00;99.90;;;;;;4994463;28;20916;-77
2022/02/04 06:07:23;;;;;;;0.70;0.70;;;5.00;99.90;;;;;;4994898;28;20472;-77
2022/02/04 06:23:34;;;;;;;0.40;0.40;;;4.90;99.90;;;;;;4994286;28;20471;-78
2022/02/04 06:26:01;;;;;;;0.83;0.83;;;4.90;99.90;;;;;;4994261;28;20468;-78
2022/02/04 06:28:29;;;;;;;0.40;0.40;;;4.90;99.90;;;;;;4994332;28;20506;-78
2022/02/04 06:30:56;;;;;;;0.30;0.20;;;4.90;99.90;;;;;;4994235;28;20479;-77
2022/02/04 06:33:22;;;;;;;0.50;0.50;;;4.90;99.90;;;;;;4994044;28;20928;-77
2022/02/04 06:35:49;;;;;;;0.33;0.33;;;4.90;99.90;;;;;;4993805;28;20852;-77
2022/02/04 06:38:16;;;;;;;0.50;0.47;;;4.90;99.90;;;;;;4994153;28;20484;-77
2022/02/04 06:40:43;;;;;;;0.30;0.20;;;4.90;99.90;;;;;;4994169;28;20453;-78
2022/02/04 06:43:10;;;;;;;0.30;0.30;;;4.90;99.90;;;;;;4994103;28;20456;-78
2022/02/04 06:45:40;;;;;;;0.30;0.20;;;4.90;99.90;;;;;;4993739;28;20983;-78
2022/02/04 06:48:07;;;;;;;0.30;0.30;;;4.90;99.90;;;;;;4994113;28;20437;-78
2022/02/04 06:50:34;;;;;;;0.40;0.40;;;4.80;99.90;;;;;;4994061;28;20467;-77
2022/02/04 06:53:01;;;;;;;0.60;0.40;;;4.90;99.90;;;;;;4993991;28;20460;-77
2022/02/04 06:55:28;;;;;;;0.30;0.20;;;4.90;99.90;;;;;;4993933;28;20543;-78
2022/02/04 06:57:56;;;;;;;0.30;0.30;;;4.90;99.90;;;;;;4993662;28;20959;-78
2022/02/04 07:00:26;;;;;;;0.30;0.20;;;4.90;99.90;;;;;;4993664;28;20495;-78
2022/02/04 07:02:54;;;;;;;0.30;0.30;;;4.80;99.90;;;;;;4994195;28;20448;-78
2022/02/04 07:05:22;;;;;;;0.30;0.30;;;4.80;99.90;;;;;;4993834;28;20457;-77
2022/02/04 07:08:02;;;;;;;0.30;0.20;;;4.80;99.90;;;;;;4997575;28;20462;-78
2022/02/04 07:10:36;;;;;;;0.30;0.30;;;4.80;99.90;;;;;;4997668;28;20432;-78
2022/02/04 07:13:12;;;;;;;0.30;0.20;;;4.80;99.90;;;;;;4997619;28;20440;-78
2022/02/04 07:15:53;;;;;;;0.30;0.20;;;4.80;99.90;;;;;;4997823;28;20476;-78
2022/02/04 07:21:07;;;;;;;2.97;0.40;;;4.80;99.90;;;;;;4997883;28;20533;-78
2022/02/04 07:23:34;;;;;;;0.30;0.20;;;4.80;99.90;;;;;;4997641;28;20488;-78
2022/02/04 07:26:01;;;;;;;0.40;0.30;;;4.80;99.90;;;;;;4997212;28;20848;-78
2022/02/04 07:28:28;;;;;;;0.30;0.30;;;4.80;99.90;;;;;;4997864;28;20445;-78
2022/02/04 07:30:56;;;;;;;0.30;0.20;;;4.80;99.90;;;;;;4997685;28;20455;-78
2022/02/04 07:33:37;;;;;;;1.43;1.43;;;4.80;99.90;;;;;;4997324;28;20500;-79
2022/02/04 07:40:52;;;;;;;0.30;0.30;;;4.80;99.90;;;;;;4997485;28;20463;-78
2022/02/04 07:41:36;;;;;;;0.30;0.30;;;4.90;99.90;;;;;;4996917;28;20445;-78
2022/02/04 07:44:03;;;;;;;0.40;0.40;;;4.80;99.90;;;;;;4997493;28;20540;-78
2022/02/04 07:46:31;;;;;;;0.60;0.40;;;4.80;99.90;;;;;;4997261;28;20233;-78
2022/02/04 07:48:59;;;;;;;0.77;0.60;;;4.90;99.90;;;;;;4997272;28;20429;-78
2022/02/04 07:51:26;;;;;;;0.30;0.30;;;4.90;99.90;;;;;;4997250;28;20433;-78
2022/02/04 07:53:53;;;;;;;0.30;0.30;;;5.00;99.90;;;;;;4997291;28;20473;-78
2022/02/04 07:56:23;;;;;;;0.30;0.30;;;5.00;99.90;;;;;;4996725;28;20475;-78
2022/02/04 07:58:56;;;;;;;0.57;0.57;;;5.00;99.90;;;;;;4997007;28;20874;-78
2022/02/04 08:01:26;;;;;;;0.83;0.83;;;5.10;99.90;;;;;;4996970;28;20790;-78
2022/02/04 08:04:00;;;;;;;0.30;0.20;;;5.10;99.90;;;;;;4997008;28;20523;-78
2022/02/04 08:06:30;;;;;;;1.27;1.17;;;5.20;99.90;;;;;;4996953;28;20563;-78
2022/02/04 08:09:04;;;;;;;0.30;0.20;;;5.20;99.90;;;;;;4996939;28;20836;-78
2022/02/04 08:11:52;;;;;;;0.30;0.20;;;5.30;99.90;;;;;;4996782;28;20780;-78
2022/02/04 08:14:31;;;;;;;0.30;0.20;;;5.40;99.90;;;;;;4996787;28;20447;-78
2022/02/04 08:17:26;;;;;;;0.30;0.20;;;5.40;99.90;;;;;;4996568;28;20476;-78
2022/02/04 08:23:09;;;;;;;0.30;0.30;;;5.40;99.90;;;;;;4996572;28;20411;-78
2022/02/04 08:26:02;;;;;;;0.30;0.30;;;5.60;99.90;;;;;;4996599;28;20500;-78
2022/02/04 08:56:46;;;;;;;0.30;0.30;;;6.70;99.90;;;;;;4985322;28;20479;-77
2022/02/04 08:59:23;;;;;;;0.50;0.50;;;6.80;99.90;;;;;;4995864;28;20544;-77
2022/02/04 09:01:58;;;;;;;0.30;0.20;;;6.80;99.90;;;;;;4995951;28;20436;-77
2022/02/04 09:04:33;;;;;;;0.40;0.30;;;6.80;99.90;;;;;;4995925;28;20443;-77
2022/02/04 09:07:06;;;;;;;0.50;0.50;;;6.80;99.90;;;;;;4995784;28;20480;-77
2022/02/04 09:09:48;;;;;;;0.40;0.30;;;6.80;99.90;;;;;;4996088;28;20448;-78
2022/02/04 09:20:35;;;;;;;0.30;0.20;;;7.10;99.90;;;;;;4986632;28;20479;-77
2022/02/04 09:23:01;;;;;;;1.00;0.50;;;7.20;99.90;;;;;;4995436;28;20487;-77
2022/02/04 09:25:28;;;;;;;0.30;0.30;;;7.20;99.90;;;;;;4995425;28;20437;-77
2022/02/04 09:27:57;;;;;;;0.43;0.43;;;7.30;99.90;;;;;;4995332;28;20464;-77
2022/02/04 09:30:25;;;;;;;0.40;0.40;;;7.20;99.90;;;;;;4995179;28;20453;-77
2022/02/04 09:32:52;;;;;;;0.40;0.33;;;7.50;99.90;;;;;;4995288;28;20440;-77
2022/02/04 09:35:22;;;;;;;0.40;0.30;;;7.80;99.90;;;;;;4995240;28;20448;-77
2022/02/04 09:37:49;;;;;;;0.30;0.30;;;8.50;99.90;;;;;;4995289;28;20437;-77
2022/02/04 09:40:17;;;;;;;0.37;0.30;;;10.00;99.90;;;;;;4994913;28;20814;-77
2022/02/04 09:42:45;;;;;;;0.40;0.30;;;11.40;99.90;;;;;;4995182;28;20437;-77
2022/02/04 09:45:15;;;;;;;0.70;0.70;;;11.80;99.90;;;;;;4995057;28;20439;-77
2022/02/04 09:47:47;;;;;;;1.17;0.60;;;11.80;99.90;;;;;;4995074;28;20441;-77
2022/02/04 09:50:19;;;;;;;0.60;0.40;;;11.60;99.90;;;;;;4994944;28;20421;-77
2022/02/04 10:15:50;;;;;;;0.30;0.20;;;9.10;99.90;;;;;;4992313;28;20535;-77
2022/02/04 10:29:07;;;;;;;0.67;0.30;;;8.30;99.90;;;;;;5100906;23;20509;-77
2022/02/04 10:31:34;;;;;;;0.30;0.30;;;8.10;99.90;;;;;;4994366;28;20448;-77
2022/02/04 10:34:05;;;;;;;0.30;0.20;;;8.10;99.90;;;;;;4994328;28;20444;-77
2022/02/04 10:36:47;;;;;;;0.30;0.20;;;8.10;99.90;;;;;;4993898;28;20987;-77
2022/02/04 10:39:26;;;;;;;0.80;0.50;;;8.10;99.90;;;;;;4994348;28;20469;-77
2022/02/04 10:42:13;;;;;;;0.50;0.40;;;7.90;99.90;;;;;;4993618;28;20440;-77
2022/02/04 10:44:57;;;;;;;0.30;0.30;;;7.90;99.90;;;;;;4994171;28;20433;-77
2022/02/04 10:47:47;;;;;;;0.30;0.30;;;7.90;99.90;;;;;;4994046;28;20499;-77
2022/02/04 10:53:45;;;;;;;0.30;0.20;;;7.90;99.90;;;;;;4993869;28;20776;-77
2022/02/04 10:56:43;;;;;;;0.30;0.30;;;7.90;99.90;;;;;;4993625;28;20883;-77
2022/02/04 10:59:25;;;;;;;0.53;0.53;;;7.90;99.90;;;;;;4993873;28;20448;-77
2022/02/04 11:02:13;;;;;;;0.30;0.30;;;7.90;99.90;;;;;;4994005;28;20439;-77
2022/02/04 11:04:49;;;;;;;0.30;0.20;;;7.80;99.90;;;;;;4993663;28;20904;-77
2022/02/04 11:07:46;;;;;;;0.30;0.30;;;7.70;99.90;;;;;;4993633;28;21041;-77
2022/02/04 11:10:24;;;;;;;0.30;0.20;;;7.70;99.90;;;;;;4993481;28;20444;-77
2022/02/04 11:35:30;;;;;;;0.30;0.30;;;8.20;99.90;;;;;;4984772;28;20428;-78
2022/02/04 11:44:31;;;;;;;0.30;0.20;;;8.00;99.90;;;;;;4993400;28;20464;-77
2022/02/04 11:52:40;;;;;;;0.30;0.30;;;7.80;99.90;;;;;;4994352;28;20909;-78
2022/02/04 11:55:34;;;;;;;0.40;0.30;;;7.90;99.90;;;;;;4997451;28;20425;-78
2022/02/04 11:58:04;;;;;;;0.30;0.20;;;7.90;99.90;;;;;;4973447;28;20448;-77
2022/02/04 12:00:33;;;;;;;0.30;0.20;;;7.90;99.90;;;;;;4997058;28;20504;-78
2022/02/04 12:03:00;;;;;;;0.30;0.30;;;7.90;99.90;;;;;;4997112;28;20429;-78
2022/02/04 12:05:35;;;;;;;0.30;0.20;;;7.80;99.90;;;;;;4996612;28;20900;-78
2022/02/04 12:08:33;;;;;;;0.30;0.30;;;7.80;99.90;;;;;;4996995;28;20443;-78
2022/02/04 12:11:11;;;;;;;0.30;0.30;;;7.80;99.90;;;;;;4996896;28;20453;-77
2022/02/04 12:14:10;;;;;;;0.30;0.30;;;7.80;99.90;;;;;;4996540;28;20964;-78
2022/02/04 12:16:57;;;;;;;0.30;0.20;;;7.80;99.90;;;;;;4996733;28;20476;-78
2022/02/04 12:19:36;;;;;;;0.30;0.30;;;7.70;99.90;;;;;;4997398;28;20835;-78
2022/02/04 12:22:03;;;;;;;0.30;0.30;;;7.60;99.90;;;;;;4996449;28;20982;-78
2022/02/04 12:24:34;;;;;;;0.30;0.30;;;7.60;99.90;;;;;;4996863;28;20429;-79
2022/02/04 12:27:34;;;;;;;0.30;0.20;;;7.60;99.90;;;;;;4996612;28;20464;-78
2022/02/04 12:30:36;;;;;;;0.73;0.40;;;7.70;99.90;;;;;;4996808;28;20432;-78
2022/02/04 12:33:04;;;;;;;0.30;0.20;;;7.80;99.90;;;;;;4994885;28;20563;-78
2022/02/04 12:35:31;;;;;;;0.40;0.30;;;7.80;99.90;;;;;;4996407;28;20440;-78
2022/02/04 12:37:58;;;;;;;0.30;0.20;;;7.80;99.90;;;;;;4996423;28;20622;-78
2022/02/04 12:40:26;;;;;;;0.30;0.23;;;7.80;99.90;;;;;;4996336;28;20468;-78
2022/02/04 12:42:53;;;;;;;0.33;0.27;;;7.70;99.90;;;;;;4996351;28;20433;-78
2022/02/04 12:45:19;;;;;;;0.30;0.20;;;7.70;99.90;;;;;;4996065;28;20436;-78
2022/02/04 12:47:49;;;;;;;0.30;0.20;;;7.80;99.90;;;;;;4996288;28;20636;-78
2022/02/04 12:50:16;;;;;;;0.30;0.20;;;7.90;99.90;;;;;;4996182;28;20428;-78
2022/02/04 12:52:46;;;;;;;0.30;0.20;;;8.00;99.90;;;;;;4996146;28;20436;-78
2022/02/04 12:55:22;;;;;;;0.30;0.20;;;7.90;99.90;;;;;;4996052;28;20441;-78
2022/02/04 12:58:11;;;;;;;0.30;0.20;;;7.90;99.90;;;;;;4996062;28;20437;-78
2022/02/04 13:07:27;;;;;;;0.30;0.20;;;7.90;99.90;;;;;;4995452;28;20428;-78
2022/02/04 13:09:48;;;;;;;0.30;0.20;;;7.90;99.90;;;;;;4995791;28;20475;-78
2022/02/04 13:12:06;;;;;;;0.30;0.20;;;7.80;99.90;;;;;;4995324;28;20854;-78
2022/02/04 13:14:34;;;;;;;0.30;0.23;;;7.70;99.90;;;;;;4995788;28;20439;-78
2022/02/04 13:17:01;;;;;;;0.30;0.20;;;7.70;99.90;;;;;;4995306;28;20890;-78
2022/02/04 13:19:28;;;;;;;0.30;0.20;;;7.70;99.90;;;;;;4995831;28;20425;-78
2022/02/04 13:21:55;;;;;;;0.30;0.20;;;7.70;99.90;;;;;;4995607;28;20455;-78
2022/02/04 13:24:22;;;;;;;1.43;0.70;;;7.60;99.90;;;;;;4995340;28;20424;-78
2022/02/04 13:26:49;;;;;;;0.30;0.20;;;7.50;99.90;;;;;;4995410;28;20473;-78
2022/02/04 13:29:16;;;;;;;0.30;0.20;;;7.40;99.90;;;;;;4995047;28;20854;-78
2022/02/04 13:31:44;;;;;;;0.30;0.30;;;7.30;99.90;;;;;;4995243;28;20480;-78
2022/02/04 13:34:12;;;;;;;0.30;0.30;;;7.40;99.90;;;;;;4995096;28;20440;-77
2022/02/04 13:36:44;;;;;;;0.30;0.30;;;7.30;99.90;;;;;;4994956;28;20857;-78
2022/02/04 13:39:19;;;;;;;0.33;0.33;;;7.40;99.90;;;;;;4995293;28;20437;-78
2022/02/04 13:42:00;;;;;;;0.30;0.20;;;7.40;99.90;;;;;;4995159;28;20476;-78
2022/02/04 13:44:34;;;;;;;0.30;0.20;;;7.30;99.90;;;;;;4995378;28;20494;-78
2022/02/04 13:47:17;;;;;;;0.30;0.27;;;7.30;99.90;;;;;;4995051;28;20475;-78
2022/02/04 13:50:12;;;;;;;0.30;0.20;;;7.30;99.90;;;;;;4995060;28;20440;-78
2022/02/04 13:55:29;;;;;;;0.30;0.20;;;7.40;99.90;;;;;;4992661;28;20486;-78
2022/02/04 13:58:12;;;;;;;0.30;0.20;;;7.30;99.90;;;;;;4995166;28;20433;-78
2022/02/04 14:00:50;;;;;;;0.30;0.20;;;7.40;99.90;;;;;;4995187;28;20480;-78
2022/02/04 14:03:21;;;;;;;0.30;0.20;;;7.40;99.90;;;;;;4994873;28;20519;-78
2022/02/04 14:05:53;;;;;;;0.30;0.20;;;7.40;99.90;;;;;;4994747;28;20476;-78
2022/02/04 14:08:29;;;;;;;0.30;0.30;;;7.40;99.90;;;;;;4994840;28;20440;-78
2022/02/04 14:10:58;;;;;;;0.30;0.20;;;7.50;99.90;;;;;;4994738;28;20515;-78
2022/02/04 14:13:27;;;;;;;0.30;0.20;;;7.40;99.90;;;;;;4994638;28;20463;-78
2022/02/04 14:15:57;;;;;;;0.30;0.30;;;7.40;99.90;;;;;;4993389;28;20483;-78
2022/02/04 14:18:26;;;;;;;0.30;0.30;;;7.40;99.90;;;;;;4994334;28;20449;-78
2022/02/04 14:20:53;;;;;;;0.30;0.20;;;7.40;99.90;;;;;;4994404;28;20473;-78
2022/02/04 14:23:20;;;;;;;0.30;0.20;;;7.50;99.90;;;;;;4994547;28;20444;-78
2022/02/04 14:25:53;;;;;;;0.40;0.30;;;7.50;99.90;;;;;;4994161;28;20471;-78
2022/02/04 14:28:26;;;;;;;0.30;0.20;;;7.50;99.90;;;;;;4993925;28;20583;-78
2022/02/04 14:31:01;;;;;;;0.30;0.30;;;7.60;99.90;;;;;;4994431;28;20433;-78
2022/02/04 14:50:42;;;;;;;0.30;0.20;;;7.20;99.90;;;;;;5152386;27;20419;-78
2022/02/04 14:53:17;;;;;;;0.30;0.20;;;7.20;99.90;;;;;;5152202;27;20846;-79
2022/02/04 14:59:01;;;;;;;0.30;0.27;;;7.30;99.90;;;;;;5151966;27;20405;-78
2022/02/04 15:01:31;;;;;;;0.30;0.20;;;7.30;99.90;;;;;;5152132;27;20437;-78
2022/02/04 15:04:04;;;;;;;0.30;0.30;;;7.20;99.90;;;;;;5151779;27;20912;-78
2022/02/04 15:06:34;;;;;;;0.30;0.30;;;7.10;99.90;;;;;;5152010;27;20485;-78
2022/02/04 15:09:05;;;;;;;0.57;0.47;;;7.00;99.90;;;;;;5151961;27;20465;-78
2022/02/04 15:11:34;;;;;;;0.30;0.20;;;6.90;99.90;;;;;;5151890;27;20434;-78
2022/02/04 15:14:02;;;;;;;0.30;0.20;;;6.90;99.90;;;;;;5151873;27;20433;-78
2022/02/04 15:16:29;;;;;;;0.30;0.30;;;6.80;99.90;;;;;;5151447;27;20464;-78
2022/02/04 15:18:56;;;;;;;0.30;0.20;;;6.80;99.90;;;;;;5151777;27;20445;-78
2022/02/04 15:21:24;;;;;;;0.30;0.20;;;6.80;99.90;;;;;;5151836;27;20439;-78
2022/02/04 15:23:53;;;;;;;0.30;0.20;;;6.80;99.90;;;;;;5151640;27;20434;-79
2022/02/04 15:26:23;;;;;;;0.30;0.20;;;6.80;99.90;;;;;;5152300;27;20485;-78
2022/02/04 15:28:56;;;;;;;0.30;0.20;;;6.70;99.90;;;;;;5151576;27;20438;-78
2022/02/04 15:31:31;;;;;;;0.30;0.20;;;6.70;99.90;;;;;;5151553;27;20437;-78
2022/02/04 15:33:59;;;;;;;0.30;0.20;;;6.70;99.90;;;;;;5151496;27;20436;-78
2022/02/04 15:36:28;;;;;;;0.30;0.20;;;6.70;99.90;;;;;;5150890;27;20476;-78
2022/02/04 15:38:57;;;;;;;0.30;0.20;;;6.70;99.90;;;;;;5151129;27;20437;-78
2022/02/04 15:41:26;;;;;;;0.30;0.20;;;6.70;99.90;;;;;;5151382;27;20480;-78
2022/02/04 15:43:56;;;;;;;0.70;0.40;;;6.80;99.90;;;;;;5151310;27;20434;-78
2022/02/04 15:52:39;;;;;;;0.30;0.20;;;6.70;99.90;;;;;;5137132;27;20409;-78
2022/02/04 15:58:30;;;;;;;0.30;0.20;;;6.70;99.90;;;;;;5093926;28;20461;-78
2022/02/04 16:03:59;;;;;;;0.30;0.20;;;6.70;99.90;;;;;;5133181;27;20430;-78
2022/02/04 16:06:26;;;;;;;0.30;0.20;;;6.70;99.90;;;;;;5136928;27;20564;-77
2022/02/04 16:08:55;;;;;;;0.30;0.20;;;6.70;99.90;;;;;;5136976;27;20426;-78
2022/02/04 16:11:35;;;;;;;0.30;0.30;;;6.60;99.90;;;;;;5136702;27;20430;-78
2022/02/04 16:14:14;;;;;;;0.30;0.20;;;6.50;99.90;;;;;;5136896;27;20438;-78
2022/02/04 16:16:45;;;;;;;0.30;0.20;;;6.40;99.90;;;;;;5136402;27;20995;-78
2022/02/04 16:19:25;;;;;;;0.30;0.20;;;6.50;99.90;;;;;;5136443;27;20430;-78
2022/02/04 16:22:07;;;;;;;0.30;0.20;;;6.40;99.90;;;;;;5136426;27;20803;-78
2022/02/04 16:24:48;;;;;;;0.30;0.20;;;6.40;99.90;;;;;;5137422;27;20473;-78
2022/02/04 16:30:02;;;;;;;0.30;0.20;;;6.30;99.90;;;;;;5136653;27;20403;-78
2022/02/04 16:32:30;;;;;;;0.30;0.20;;;6.20;99.90;;;;;;5136224;27;20441;-78
2022/02/04 16:34:57;;;;;;;0.30;0.20;;;6.30;99.90;;;;;;5136186;27;20465;-78
2022/02/04 16:37:30;;;;;;;0.30;0.30;;;6.30;99.90;;;;;;5136359;27;20825;-78
2022/02/04 16:39:57;;;;;;;0.30;0.20;;;6.20;99.90;;;;;;5136411;27;20435;-78
2022/02/04 16:42:24;;;;;;;0.30;0.20;;;6.30;99.90;;;;;;5136357;27;20426;-78
2022/02/04 16:44:51;;;;;;;0.30;0.20;;;6.30;99.90;;;;;;5135933;27;20920;-78
2022/02/04 16:47:19;;;;;;;0.50;0.30;;;6.20;99.90;;;;;;5136186;27;20466;-78
2022/02/04 16:49:46;;;;;;;0.30;0.20;;;6.10;99.90;;;;;;5137099;27;20453;-78
2022/02/04 16:52:13;;;;;;;0.30;0.30;;;6.10;99.90;;;;;;5136240;27;20440;-78
2022/02/04 16:54:40;;;;;;;0.40;0.33;;;6.10;99.90;;;;;;5135817;27;20441;-78
2022/02/04 16:57:07;;;;;;;0.30;0.20;;;6.10;99.90;;;;;;5136057;27;20635;-78
2022/02/04 16:59:34;;;;;;;0.30;0.20;;;6.10;99.90;;;;;;5135033;27;20434;-78
2022/02/04 17:02:02;;;;;;;0.30;0.20;;;6.10;99.90;;;;;;5136018;27;20434;-78
2022/02/04 17:04:30;;;;;;;0.30;0.20;;;6.10;99.90;;;;;;5135937;27;20429;-78
2022/02/04 17:07:01;;;;;;;0.30;0.20;;;6.00;99.90;;;;;;5135765;27;21022;-78
2022/02/04 17:09:32;;;;;;;0.30;0.20;;;6.00;99.90;;;;;;5135814;27;20438;-78
2022/02/04 17:12:05;;;;;;;0.40;0.40;;;5.90;99.90;;;;;;5135736;27;20434;-78
2022/02/04 17:14:34;;;;;;;0.30;0.20;;;5.90;99.90;;;;;;5135727;27;20442;-78
2022/02/04 17:17:02;;;;;;;0.30;0.20;;;5.90;99.90;;;;;;5135625;27;20466;-78
2022/02/04 17:19:35;;;;;;;0.30;0.20;;;6.00;99.90;;;;;;5135644;27;20803;-78
2022/02/04 17:22:04;;;;;;;0.30;0.20;;;5.90;99.90;;;;;;5135579;27;20434;-78
2022/02/04 17:24:31;;;;;;;0.30;0.20;;;5.90;99.90;;;;;;5135219;27;20434;-78
2022/02/04 17:26:59;;;;;;;0.30;0.20;;;5.90;99.90;;;;;;5135321;27;20848;-78
2022/02/04 17:29:28;;;;;;;0.30;0.30;;;5.90;99.90;;;;;;5135446;27;20437;-77
2022/02/04 17:31:55;;;;;;;0.30;0.20;;;5.90;99.90;;;;;;5135409;27;20466;-78
2022/02/04 17:34:22;;;;;;;0.30;0.20;;;5.90;99.90;;;;;;5134986;27;20465;-78
2022/02/04 17:36:51;;;;;;;0.30;0.20;;;5.90;99.90;;;;;;5134900;27;20964;-78
2022/02/04 17:39:20;;;;;;;0.30;0.20;;;6.00;99.90;;;;;;5135266;27;20437;-78
2022/02/04 17:41:49;;;;;;;0.30;0.20;;;5.90;99.90;;;;;;5135167;27;20522;-78
2022/02/04 17:44:17;;;;;;;0.50;0.27;;;5.90;99.90;;;;;;5135194;27;20469;-78
2022/02/04 17:46:45;;;;;;;0.30;0.20;;;5.80;99.90;;;;;;5134987;27;20485;-78
2022/02/04 17:49:17;;;;;;;0.33;0.27;;;5.70;99.90;;;;;;5135084;27;20431;-78
2022/02/04 17:51:50;;;;;;;2.40;2.30;;;5.80;99.90;;;;;;5135047;27;20432;-78
2022/02/04 17:54:27;;;;;;;0.30;0.30;;;5.80;99.90;;;;;;5134976;27;20434;-78
2022/02/04 17:57:06;;;;;;;0.30;0.20;;;5.90;99.90;;;;;;5134560;27;20832;-78
2022/02/04 18:02:27;;;;;;;0.30;0.20;;;5.90;99.90;;;;;;5135631;27;20430;-78
2022/02/04 18:07:38;;;;;;;0.30;0.20;;;5.90;99.90;;;;;;5134804;27;20493;-78
2022/02/04 18:10:08;;;;;;;0.40;0.40;;;5.90;99.90;;;;;;5134500;27;20506;-78